Time;durP1;ratioP1;P1;durP2;ratioP2;P2;SDS_P1;SDS_P2;PMS_P1;PMS_P2;Temp;Humidity;BMP_temperature;BMP_pressure;BME280_temperature;BME280_humidity;BME280_pressure;Samples;Min_cycle;Max_cycle;Signal;HPM_P1;HPM_P2
2022/04/18 04:22:33;;;;;;;9.60;5.75;;;;;;;3.99;70.40;100531.84;5170559;27;20333;-75
2022/04/18 04:25:15;;;;;;;11.35;5.88;;;;;;;4.01;69.49;100523.81;5149229;27;20049;-75
2022/04/18 04:27:41;;;;;;;8.55;5.50;;;;;;;4.07;69.29;100532.06;5149202;27;20542;-76
2022/04/18 04:30:07;;;;;;;10.93;5.65;;;;;;;4.09;68.81;100530.13;5131913;27;20039;-75
2022/04/18 04:32:50;;;;;;;8.20;5.43;;;;;;;4.14;69.59;100528.94;5149423;27;20035;-76
2022/04/18 04:35:18;;;;;;;9.10;5.50;;;;;;;4.17;68.31;100528.66;5148928;27;20084;-76
2022/04/18 04:37:54;;;;;;;9.95;5.22;;;;;;;4.21;68.78;100530.94;5149143;27;20287;-76
2022/04/18 04:40:40;;;;;;;9.43;4.90;;;;;;;4.19;71.23;100532.03;5149955;27;20047;-76
2022/04/18 04:43:07;;;;;;;7.75;5.82;;;;;;;4.20;69.41;100524.00;5148620;27;20133;-76
2022/04/18 04:45:38;;;;;;;7.93;5.22;;;;;;;4.19;69.68;100522.31;5148848;27;20062;-76
2022/04/18 04:48:20;;;;;;;9.48;5.97;;;;;;;4.18;70.00;100533.00;5148989;27;20046;-76
2022/04/18 04:50:51;;;;;;;7.53;4.72;;;;;;;4.23;69.25;100526.38;5148833;27;20121;-75
2022/04/18 04:53:18;;;;;;;6.43;4.43;;;;;;;4.26;68.69;100527.94;5148410;27;20115;-76
2022/04/18 04:55:44;;;;;;;7.95;4.95;;;;;;;4.30;69.14;100524.06;5148868;27;20023;-77
2022/04/18 04:58:11;;;;;;;9.95;6.00;;;;;;;4.23;71.49;100517.63;5148757;27;20027;-76
2022/04/18 05:00:39;;;;;;;9.68;5.90;;;;;;;4.31;71.08;100523.97;5149896;27;20049;-77
2022/04/18 05:03:28;;;;;;;9.38;5.80;;;;;;;4.37;70.80;100522.63;5129728;27;20050;-76
2022/04/18 05:05:54;;;;;;;7.63;5.38;;;;;;;4.45;68.06;100517.53;5149215;27;20039;-76
2022/04/18 05:08:32;;;;;;;;;;;;;;;4.55;67.56;100521.06;5150641;27;20403;-76
2022/04/18 05:11:00;;;;;;;8.63;4.70;;;;;;;4.62;67.63;100516.94;5149290;27;19915;-75
2022/04/18 05:13:35;;;;;;;8.57;4.80;;;;;;;4.68;67.29;100506.84;5148928;27;20249;-77
2022/04/18 05:16:02;;;;;;;8.18;4.90;;;;;;;4.76;66.39;100496.47;5115162;27;20039;-77
2022/04/18 05:18:38;;;;;;;7.68;5.32;;;;;;;4.93;65.27;100506.47;5149433;27;20321;-77
2022/04/18 05:21:04;;;;;;;10.48;5.20;;;;;;;4.96;65.63;100498.28;5149327;27;20053;-77
2022/04/18 05:23:30;;;;;;;7.47;5.10;;;;;;;5.08;64.52;100505.13;5148529;27;20027;-76
2022/04/18 05:25:56;;;;;;;9.85;5.32;;;;;;;5.18;64.30;100511.31;5148479;27;20039;-75
2022/04/18 05:28:21;;;;;;;7.05;5.15;;;;;;;5.31;64.01;100510.25;5113794;27;20402;-75
2022/04/18 05:30:52;;;;;;;6.05;5.05;;;;;;;5.46;62.93;100508.91;5148010;27;20107;-76
2022/04/18 05:33:21;;;;;;;9.50;5.60;;;;;;;5.58;62.11;100509.66;5138788;27;20039;-75
2022/04/18 05:36:05;;;;;;;8.02;5.50;;;;;;;5.70;60.90;100517.34;5135648;27;20069;-76
2022/04/18 05:38:34;;;;;;;8.52;4.95;;;;;;;5.86;61.17;100519.44;5135072;27;20400;-77
2022/04/18 05:41:06;;;;;;;6.82;4.70;;;;;;;5.99;60.02;100517.41;5134773;27;20043;-78
2022/04/18 05:43:33;;;;;;;8.32;4.50;;;;;;;6.07;59.40;100518.56;5134801;27;20038;-77
2022/04/18 05:45:59;;;;;;;7.32;5.13;;;;;;;6.19;59.49;100526.25;5118012;27;20079;-74
2022/04/18 05:48:25;;;;;;;6.43;4.68;;;;;;;6.33;58.98;100530.28;5134135;27;20035;-75
2022/04/18 05:50:54;;;;;;;9.18;5.10;;;;;;;6.43;57.94;100519.69;5133907;27;20070;-73
2022/04/18 05:53:28;;;;;;;6.03;4.38;;;;;;;6.55;57.15;100526.50;5133493;27;20039;-74
2022/04/18 05:56:16;;;;;;;7.55;4.30;;;;;;;6.73;56.14;100527.47;5118558;27;20104;-73
2022/04/18 05:58:59;;;;;;;6.63;4.68;;;;;;;6.84;56.39;100526.44;5113172;28;20042;-74
2022/04/18 06:01:30;;;;;;;6.68;4.55;;;;;;;6.88;56.82;100522.56;5114215;28;20092;-74
2022/04/18 06:03:58;;;;;;;10.45;4.68;;;;;;;7.24;55.47;100526.22;5096358;28;20056;-73
2022/04/18 06:06:25;;;;;;;8.38;5.30;;;;;;;7.49;55.22;100526.53;5112982;28;20040;-75
2022/04/18 06:08:51;;;;;;;8.68;3.97;;;;;;;7.61;54.32;100522.72;5095936;28;20031;-74
2022/04/18 06:11:22;;;;;;;6.13;4.53;;;;;;;7.79;53.71;100533.38;5112885;28;20080;-72
2022/04/18 06:13:57;;;;;;;10.63;4.90;;;;;;;8.18;53.40;100528.66;5112605;28;20042;-73
2022/04/18 06:16:24;;;;;;;7.18;4.13;;;;;;;8.20;52.29;100531.16;5114064;28;20372;-72
2022/04/18 06:18:49;;;;;;;8.45;4.90;;;;;;;8.04;52.62;100530.00;5112765;28;20046;-72
2022/04/18 06:21:15;;;;;;;6.65;4.50;;;;;;;8.10;52.28;100534.72;5112448;28;20123;-72
2022/04/18 06:23:43;;;;;;;8.23;5.05;;;;;;;8.19;52.54;100526.81;5112557;28;20151;-73
2022/04/18 06:26:28;;;;;;;8.40;4.50;;;;;;;8.23;52.16;100528.19;5114084;28;20074;-69
2022/04/18 06:28:57;;;;;;;6.78;4.38;;;;;;;8.25;52.30;100528.88;5112534;28;20039;-69
2022/04/18 06:31:24;;;;;;;6.03;4.18;;;;;;;8.24;53.07;100524.56;5112558;28;20027;-72
2022/04/18 06:34:01;;;;;;;7.35;4.43;;;;;;;8.32;52.17;100521.97;5112341;28;20047;-74
2022/04/18 06:36:27;;;;;;;9.55;5.10;;;;;;;8.41;51.60;100518.44;5112390;28;20445;-74
2022/04/18 06:39:24;;;;;;;;;;;;;;;8.62;50.42;100518.13;5102397;28;20510;-73
2022/04/18 06:42:02;;;;;;;6.00;4.30;;;;;;;8.73;50.35;100525.81;5096887;28;20331;-73
2022/04/18 06:44:39;;;;;;;9.75;4.80;;;;;;;8.72;49.82;100521.50;5111367;28;20040;-74
2022/04/18 06:47:05;;;;;;;7.35;4.13;;;;;;;8.85;49.84;100523.75;5107913;28;20067;-74
2022/04/18 06:49:50;;;;;;;13.52;7.35;;;;;;;9.01;49.84;100510.59;5111257;28;20042;-73
2022/04/18 06:52:50;;;;;;;15.70;9.52;;;;;;;9.16;49.61;100513.50;5112387;28;20035;-73
2022/04/18 06:58:26;;;;;;;14.85;8.55;;;;;;;9.27;49.09;100504.44;5098435;28;20039;-73
2022/04/18 07:00:52;;;;;;;7.20;4.93;;;;;;;9.39;48.90;100509.31;5094709;28;20577;-74
2022/04/18 07:03:22;;;;;;;8.85;4.75;;;;;;;9.50;47.89;100509.00;5111041;28;20027;-74
2022/04/18 07:05:49;;;;;;;7.50;4.57;;;;;;;9.56;47.82;100504.06;5094672;28;20043;-74
2022/04/18 07:08:14;;;;;;;7.20;4.20;;;;;;;9.60;47.39;100498.25;5094405;28;20035;-74
2022/04/18 07:10:41;;;;;;;6.25;4.43;;;;;;;9.72;47.87;100506.78;5094825;28;20069;-74
2022/04/18 07:13:06;;;;;;;6.00;4.43;;;;;;;9.84;49.14;100501.97;5110934;28;20032;-73
2022/04/18 07:15:33;;;;;;;6.97;5.10;;;;;;;9.92;47.37;100496.69;5111270;28;20046;-73
2022/04/18 07:18:03;;;;;;;7.10;4.63;;;;;;;9.97;47.01;100500.50;5094814;28;20035;-74
2022/04/18 07:20:29;;;;;;;5.30;3.72;;;;;;;10.05;46.54;100503.22;5111256;28;20046;-74
2022/04/18 07:22:55;;;;;;;7.15;4.28;;;;;;;10.12;47.28;100506.06;5112007;28;20488;-73
2022/04/18 07:25:23;;;;;;;9.02;4.05;;;;;;;10.20;46.83;100499.91;5111714;28;20138;-73
2022/04/18 07:28:06;;;;;;;5.43;3.90;;;;;;;10.31;46.80;100488.97;5096596;28;20040;-73
2022/04/18 07:30:32;;;;;;;6.90;4.10;;;;;;;10.32;46.85;100496.78;5111317;28;20031;-73
2022/04/18 07:32:58;;;;;;;7.38;3.92;;;;;;;10.42;47.23;100498.44;5093631;28;20423;-72
2022/04/18 07:35:24;;;;;;;7.10;4.07;;;;;;;10.48;46.41;100501.28;5094008;28;20485;-74
2022/04/18 07:40:54;;;;;;;6.70;3.70;;;;;;;10.81;45.01;100503.91;5096712;28;20035;-75
2022/04/18 07:43:23;;;;;;;6.68;4.18;;;;;;;10.84;45.39;100495.59;5077243;28;20400;-74
2022/04/18 07:45:49;;;;;;;6.93;3.85;;;;;;;10.87;45.48;100496.09;5093925;28;20027;-74
2022/04/18 07:48:15;;;;;;;6.00;3.53;;;;;;;11.04;47.45;100493.41;5110838;28;20130;-73
2022/04/18 07:53:31;;;;;;;5.65;3.78;;;;;;;11.18;45.71;100495.38;5109600;28;20436;-73
2022/04/18 07:55:57;;;;;;;6.97;4.40;;;;;;;11.41;45.02;100498.13;5110544;28;20046;-72
2022/04/18 07:58:24;;;;;;;5.57;3.75;;;;;;;11.52;45.57;100497.72;5093920;28;20483;-72
2022/04/18 08:00:50;;;;;;;6.95;4.00;;;;;;;11.47;44.01;100493.91;5110837;28;20040;-72
2022/04/18 08:03:17;;;;;;;6.03;3.65;;;;;;;11.60;44.48;100489.69;5090449;28;20039;-73
2022/04/18 08:05:49;;;;;;;6.20;3.92;;;;;;;11.74;44.57;100490.00;5109706;28;20413;-73
2022/04/18 08:08:19;;;;;;;6.53;3.50;;;;;;;11.84;43.50;100496.78;5094706;28;20040;-73
2022/04/18 08:10:46;;;;;;;6.13;3.95;;;;;;;11.87;43.24;100506.28;5094082;28;20131;-73
2022/04/18 08:13:12;;;;;;;5.72;3.55;;;;;;;11.91;42.95;100497.75;5110299;28;20111;-72
2022/04/18 08:15:57;;;;;;;4.93;3.45;;;;;;;12.09;42.59;100504.66;5103419;28;20048;-72
2022/04/18 08:18:39;;;;;;;6.78;3.72;;;;;;;12.23;42.00;100502.03;5090458;28;20503;-73
2022/04/18 08:21:17;;;;;;;5.18;3.90;;;;;;;12.40;41.66;100502.75;5074670;28;20097;-74
2022/04/18 08:23:44;;;;;;;10.30;6.53;;;;;;;12.38;41.65;100504.75;5073524;28;20048;-73
2022/04/18 08:26:29;;;;;;;7.57;4.47;;;;;;;12.53;41.60;100507.50;5090927;28;20059;-73
2022/04/18 08:28:58;;;;;;;7.55;3.95;;;;;;;12.57;41.74;100502.63;5090942;28;20055;-72
2022/04/18 08:31:24;;;;;;;7.30;4.72;;;;;;;12.77;42.32;100507.28;5091181;28;20032;-73
2022/04/18 08:33:55;;;;;;;9.07;4.53;;;;;;;12.59;41.68;100498.78;5090644;28;20164;-75
2022/04/18 08:36:21;;;;;;;5.53;3.50;;;;;;;12.65;41.41;100499.88;5073981;28;20065;-73
2022/04/18 08:38:48;;;;;;;5.43;4.05;;;;;;;12.77;40.75;100498.44;5090819;28;20036;-73
2022/04/18 08:41:38;;;;;;;7.05;3.67;;;;;;;13.11;40.09;100497.13;5090255;28;20134;-73
2022/04/18 08:44:07;;;;;;;6.93;3.80;;;;;;;13.32;39.87;100489.22;5090222;28;20100;-74
2022/04/18 08:46:34;;;;;;;5.32;3.58;;;;;;;13.42;39.53;100494.25;5090135;28;20036;-74
2022/04/18 08:54:29;;;;;;;4.90;3.55;;;;;;;13.83;39.74;100481.22;5090112;28;20052;-71
2022/04/18 08:56:58;;;;;;;4.50;3.25;;;;;;;14.14;39.98;100475.53;5090036;28;20378;-74
2022/04/18 08:59:24;;;;;;;5.88;3.33;;;;;;;14.33;38.91;100487.47;5073475;28;20036;-71
2022/04/18 09:01:52;;;;;;;8.68;3.55;;;;;;;14.46;39.35;100474.22;5089983;28;20067;-74
2022/04/18 09:04:32;;;;;;;5.63;3.15;;;;;;;14.30;37.50;100477.97;5090080;28;20043;-71
2022/04/18 09:07:14;;;;;;;3.95;2.78;;;;;;;14.51;38.28;100471.81;5056546;28;20028;-72
2022/04/18 09:09:48;;;;;;;5.68;3.50;;;;;;;14.93;39.10;100484.31;5094167;28;20416;-73
2022/04/18 09:12:21;;;;;;;5.88;3.40;;;;;;;15.13;36.66;100475.56;5093527;28;20570;-73
2022/04/18 09:15:09;;;;;;;4.85;3.53;;;;;;;15.31;35.92;100480.41;5095084;28;20050;-73
2022/04/18 09:17:36;;;;;;;4.63;2.90;;;;;;;15.54;34.83;100475.56;5077202;28;20028;-74
2022/04/18 09:20:19;;;;;;;6.72;3.25;;;;;;;15.64;35.07;100467.97;5093477;28;20081;-73
2022/04/18 09:22:49;;;;;;;5.60;3.20;;;;;;;15.86;34.72;100475.91;5077134;28;20130;-73
2022/04/18 09:25:19;;;;;;;4.55;3.33;;;;;;;15.79;35.53;100464.34;5093621;28;20032;-74
2022/04/18 09:27:56;;;;;;;4.95;3.05;;;;;;;15.86;33.92;100457.94;5093586;28;20459;-74
2022/04/18 09:30:30;;;;;;;4.60;3.20;;;;;;;15.68;34.20;100468.41;5093522;28;20036;-75
2022/04/18 09:33:06;;;;;;;5.03;3.15;;;;;;;16.09;34.44;100464.81;5094653;28;20027;-75
2022/04/18 09:36:08;;;;;;;4.82;3.20;;;;;;;16.33;34.09;100464.22;5094247;28;20068;-74
2022/04/18 09:38:49;;;;;;;5.00;3.22;;;;;;;16.92;33.12;100471.47;5094147;28;20524;-74
2022/04/18 09:41:20;;;;;;;4.10;3.10;;;;;;;16.95;32.60;100468.38;5094880;28;20504;-74
2022/04/18 09:43:48;;;;;;;4.55;3.00;;;;;;;17.00;31.72;100457.81;5094219;28;20039;-74
2022/04/18 09:46:18;;;;;;;4.78;2.88;;;;;;;17.41;32.18;100467.44;5093123;28;20081;-74
2022/04/18 09:48:51;;;;;;;4.30;2.60;;;;;;;17.87;30.48;100452.97;5093210;28;20087;-74
2022/04/18 09:51:28;;;;;;;3.67;2.55;;;;;;;18.09;29.59;100456.97;5094020;28;20035;-74
2022/04/18 09:54:05;;;;;;;5.20;3.00;;;;;;;17.87;30.32;100450.28;5093073;28;20036;-74
2022/04/18 09:56:32;;;;;;;5.32;2.42;;;;;;;18.23;28.01;100457.69;5113138;28;20035;-75
2022/04/18 09:58:58;;;;;;;4.50;2.83;;;;;;;18.34;27.76;100448.91;5115300;28;20388;-74
2022/04/18 10:01:24;;;;;;;4.68;2.67;;;;;;;18.46;29.13;100449.03;5113776;28;20043;-74
2022/04/18 10:03:52;;;;;;;4.00;2.78;;;;;;;18.90;27.42;100458.81;5113886;28;20042;-72
2022/04/18 10:06:19;;;;;;;4.68;2.40;;;;;;;18.66;27.30;100455.13;5114879;27;20110;-74
2022/04/18 10:08:45;;;;;;;5.30;2.53;;;;;;;19.53;28.15;100444.22;5116262;28;20551;-73
2022/04/18 10:11:11;;;;;;;3.90;2.67;;;;;;;19.22;27.79;100451.44;5115167;28;20115;-73
2022/04/18 10:13:38;;;;;;;4.35;2.75;;;;;;;19.64;25.70;100442.66;5114188;28;20067;-73
2022/04/18 10:16:06;;;;;;;4.53;2.72;;;;;;;20.12;25.48;100445.31;5115148;28;20042;-73
2022/04/18 10:18:52;;;;;;;;;;;;;;;20.48;25.14;100438.94;5114839;28;20035;-74
2022/04/18 10:21:31;;;;;;;2.77;2.20;;;;;;;20.65;24.15;100433.66;5115104;28;19915;-73
2022/04/18 10:24:34;;;;;;;4.70;2.65;;;;;;;20.80;23.64;100436.72;5114531;28;20042;-75
2022/04/18 10:27:30;;;;;;;2.67;1.90;;;;;;;20.88;24.30;100432.00;5115061;28;20100;-73
2022/04/18 10:30:00;;;;;;;4.18;2.50;;;;;;;21.08;23.59;100413.50;5116125;28;20498;-74
2022/04/18 10:32:27;;;;;;;5.18;2.40;;;;;;;21.47;23.38;100414.63;5095359;28;20035;-74
2022/04/18 10:34:58;;;;;;;3.58;2.38;;;;;;;21.68;23.52;100407.69;5113507;28;20066;-75
2022/04/18 10:37:25;;;;;;;3.58;2.45;;;;;;;21.50;23.24;100400.56;5114024;28;20050;-74
2022/04/18 10:39:59;;;;;;;3.92;2.40;;;;;;;21.49;23.72;100407.06;5114213;27;20019;-74
2022/04/18 10:42:29;;;;;;;3.75;2.30;;;;;;;22.36;24.24;100400.50;5113236;28;20047;-74
2022/04/18 10:45:02;;;;;;;4.72;2.50;;;;;;;22.43;23.03;100403.84;5114780;28;20032;-75
2022/04/18 10:47:59;;;;;;;3.28;2.55;;;;;;;21.80;23.53;100399.53;5114942;28;20027;-74
2022/04/18 10:50:33;;;;;;;4.53;2.55;;;;;;;22.47;22.28;100392.25;5114129;28;20038;-75
2022/04/18 10:53:26;;;;;;;3.58;2.90;;;;;;;22.25;22.96;100390.56;5111306;28;20039;-76
2022/04/18 10:55:52;;;;;;;5.95;2.75;;;;;;;22.21;22.71;100385.63;5095729;28;20059;-75
2022/04/18 10:58:21;;;;;;;3.75;2.67;;;;;;;22.41;22.43;100387.81;5114792;28;20042;-74
2022/04/18 11:01:01;;;;;;;5.05;2.67;;;;;;;22.30;23.19;100385.19;5114274;28;20591;-73
2022/04/18 11:03:38;;;;;;;4.88;2.10;;;;;;;22.63;23.30;100385.19;5112364;28;20035;-74
2022/04/18 11:06:16;;;;;;;4.32;2.90;;;;;;;22.88;21.68;100387.44;5113561;28;20432;-75
2022/04/18 11:08:57;;;;;;;4.18;2.45;;;;;;;22.59;20.40;100369.63;5114337;28;20031;-74
2022/04/18 11:11:23;;;;;;;3.83;2.30;;;;;;;22.99;21.25;100372.13;5113866;28;20493;-74
2022/04/18 11:13:50;;;;;;;3.95;2.90;;;;;;;23.15;21.11;100373.16;5113511;28;20084;-75
2022/04/18 11:16:22;;;;;;;4.05;2.75;;;;;;;22.82;22.08;100366.72;5114202;28;20067;-75
2022/04/18 11:19:07;;;;;;;3.13;2.40;;;;;;;23.33;21.56;100370.09;5112128;28;20039;-74
2022/04/18 11:22:06;;;;;;;4.78;2.25;;;;;;;23.50;21.23;100373.53;5113097;28;20119;-78
2022/04/18 11:24:40;;;;;;;4.10;2.40;;;;;;;23.15;22.48;100360.38;5108851;28;20122;-74
2022/04/18 11:27:14;;;;;;;4.10;3.05;;;;;;;23.80;21.36;100358.66;5113513;28;20043;-75
2022/04/18 11:29:42;;;;;;;3.97;2.70;;;;;;;23.77;21.21;100357.25;5113611;28;20477;-75
2022/04/18 11:32:09;;;;;;;4.20;2.80;;;;;;;23.43;21.32;100337.59;5110356;28;20497;-74
2022/04/18 11:34:36;;;;;;;8.50;3.40;;;;;;;23.38;21.39;100345.69;5114378;28;20032;-75
2022/04/18 11:37:08;;;;;;;4.32;2.55;;;;;;;23.60;21.22;100344.81;5113072;28;20277;-74
2022/04/18 11:39:45;;;;;;;3.40;2.28;;;;;;;24.07;21.52;100347.75;5113101;28;20109;-75
2022/04/18 11:42:29;;;;;;;4.28;2.78;;;;;;;24.28;20.48;100341.38;5095425;28;20102;-76
2022/04/18 11:45:01;;;;;;;3.35;2.38;;;;;;;24.08;20.45;100338.50;5113733;28;20069;-77
2022/04/18 11:47:31;;;;;;;4.43;2.63;;;;;;;24.53;20.82;100334.50;5112582;28;20067;-75
2022/04/18 11:50:01;;;;;;;5.07;3.50;;;;;;;24.07;20.37;100345.03;5115289;28;20027;-75
2022/04/18 11:52:32;;;;;;;6.65;4.47;;;;;;;24.41;20.22;100325.69;5115089;28;20050;-76
2022/04/18 11:55:09;;;;;;;5.22;2.97;;;;;;;23.70;21.53;100332.19;5114769;28;20028;-76
2022/04/18 11:57:38;;;;;;;4.88;2.85;;;;;;;24.44;20.29;100327.88;5114340;28;20035;-77
2022/04/18 12:00:15;;;;;;;4.93;3.08;;;;;;;24.26;21.00;100331.84;5113303;28;20032;-77
2022/04/18 12:08:12;;;;;;;4.63;2.85;;;;;;;24.79;20.63;100316.38;5072137;28;20401;-73
2022/04/18 12:10:42;;;;;;;4.05;2.78;;;;;;;24.76;20.40;100304.09;5072773;28;20103;-72
2022/04/18 12:13:13;;;;;;;4.13;2.58;;;;;;;23.69;22.11;100311.50;5054534;28;20451;-72
2022/04/18 12:15:43;;;;;;;4.55;3.13;;;;;;;24.39;21.19;100308.78;5071865;28;20058;-72
2022/04/18 12:18:15;;;;;;;5.03;3.00;;;;;;;24.46;20.80;100309.41;5071955;28;20481;-71
2022/04/18 12:20:46;;;;;;;4.35;3.10;;;;;;;24.17;21.25;100293.38;5037287;28;20489;-73
2022/04/18 12:23:17;;;;;;;5.05;3.03;;;;;;;25.23;20.75;100294.19;5071301;28;20040;-72
2022/04/18 12:25:45;;;;;;;6.15;2.90;;;;;;;24.42;21.24;100298.19;5071432;28;20094;-71
2022/04/18 12:28:11;;;;;;;4.32;3.10;;;;;;;25.23;20.74;100281.38;5053810;28;20373;-71
2022/04/18 12:30:37;;;;;;;5.90;3.30;;;;;;;25.23;20.39;100286.03;5053677;28;20499;-72
2022/04/18 12:33:22;;;;;;;3.60;2.88;;;;;;;25.69;20.20;100279.56;5071216;28;20419;-71
2022/04/18 12:35:55;;;;;;;5.10;2.72;;;;;;;26.01;20.14;100272.19;5053589;28;20441;-71
2022/04/18 12:38:31;;;;;;;5.05;3.60;;;;;;;25.95;19.67;100265.91;5071572;28;20064;-72
2022/04/18 12:40:58;;;;;;;5.88;3.17;;;;;;;25.46;20.91;100263.72;5053764;28;20140;-71
2022/04/18 12:43:34;;;;;;;9.60;5.50;;;;;;;25.92;20.55;100261.84;5073350;28;20032;-71
2022/04/18 12:46:04;;;;;;;6.40;3.83;;;;;;;26.04;20.18;100255.28;5075171;28;20112;-71
2022/04/18 12:48:33;;;;;;;5.28;3.42;;;;;;;25.74;19.94;100265.13;5075258;28;20060;-70
2022/04/18 12:51:01;;;;;;;6.57;3.70;;;;;;;25.64;21.33;100265.91;5075278;28;20026;-73
2022/04/18 12:53:50;;;;;;;10.30;5.03;;;;;;;24.66;21.52;100248.78;5074759;28;20047;-70
2022/04/18 12:56:24;;;;;;;4.47;3.22;;;;;;;25.00;21.01;100239.09;5074633;28;20032;-72
2022/04/18 12:59:10;;;;;;;4.75;3.45;;;;;;;25.75;20.72;100252.28;5074922;28;20046;-72
2022/04/18 13:01:39;;;;;;;7.25;4.03;;;;;;;24.79;21.79;100238.22;5056205;28;20074;-72
2022/04/18 13:04:26;;;;;;;5.70;3.10;;;;;;;25.31;20.60;100250.91;5074492;28;20043;-72
2022/04/18 13:07:02;;;;;;;4.78;3.55;;;;;;;25.69;19.67;100243.25;5074465;28;20032;-72
2022/04/18 13:09:28;;;;;;;4.78;3.70;;;;;;;25.05;20.91;100235.59;5074656;28;20436;-72
2022/04/18 13:12:05;;;;;;;5.15;3.83;;;;;;;23.73;22.48;100250.06;5074256;28;20025;-71
2022/04/18 13:14:32;;;;;;;5.18;3.70;;;;;;;23.92;22.33;100244.22;5074716;28;20060;-72
2022/04/18 13:17:06;;;;;;;11.75;3.65;;;;;;;24.84;22.02;100232.78;5074268;28;20446;-71
2022/04/18 13:19:32;;;;;;;8.00;4.18;;;;;;;24.92;21.01;100226.00;5074542;28;20509;-72
2022/04/18 13:21:58;;;;;;;7.20;4.90;;;;;;;25.02;20.61;100222.47;5074189;28;20383;-71
2022/04/18 13:24:23;;;;;;;7.95;4.22;;;;;;;23.66;22.58;100233.16;5074423;28;20036;-72
2022/04/18 13:26:49;;;;;;;6.38;4.40;;;;;;;24.97;22.37;100225.97;5074362;28;20090;-71
2022/04/18 13:29:15;;;;;;;4.22;3.35;;;;;;;24.20;22.83;100218.59;5074271;28;20036;-71
2022/04/18 13:31:41;;;;;;;6.22;3.88;;;;;;;23.54;23.88;100208.88;5074142;28;20028;-72
2022/04/18 13:34:06;;;;;;;8.27;4.20;;;;;;;24.38;26.27;100211.88;5056344;28;20432;-72
2022/04/18 13:36:38;;;;;;;5.90;3.60;;;;;;;24.79;22.48;100207.44;5074311;28;20067;-71
2022/04/18 13:39:12;;;;;;;4.93;3.70;;;;;;;25.08;21.12;100211.31;5056385;28;20047;-72
2022/04/18 13:41:39;;;;;;;7.63;5.13;;;;;;;24.28;21.80;100204.47;5073965;28;20036;-71
2022/04/18 13:44:06;;;;;;;7.35;4.78;;;;;;;24.52;21.82;100208.44;5073888;28;20032;-72
2022/04/18 13:46:32;;;;;;;7.28;4.65;;;;;;;23.26;23.02;100209.97;5074121;28;20033;-72
2022/04/18 13:48:58;;;;;;;7.57;4.20;;;;;;;22.70;24.03;100203.94;5074087;28;20043;-71
2022/04/18 13:51:25;;;;;;;8.40;3.70;;;;;;;22.06;26.64;100200.91;5073934;28;20325;-71
2022/04/18 13:53:57;;;;;;;5.20;3.28;;;;;;;22.62;24.02;100198.13;5073291;28;20032;-72
2022/04/18 13:56:27;;;;;;;5.03;3.35;;;;;;;22.01;24.82;100189.97;5074467;28;20044;-72
2022/04/18 13:58:53;;;;;;;5.13;3.13;;;;;;;21.29;28.21;100192.66;5074025;28;20053;-71
2022/04/18 14:01:18;;;;;;;6.22;3.78;;;;;;;22.00;24.92;100191.06;5073929;28;20029;-72
2022/04/18 14:03:44;;;;;;;8.00;4.20;;;;;;;21.61;24.96;100191.03;5073671;28;20033;-72
2022/04/18 14:06:11;;;;;;;7.47;4.20;;;;;;;21.43;24.80;100188.56;5073762;28;20485;-72
2022/04/18 14:08:39;;;;;;;6.83;3.67;;;;;;;20.78;26.87;100189.81;5074335;28;20041;-72
2022/04/18 14:11:05;;;;;;;5.50;3.75;;;;;;;20.50;26.31;100189.78;5073647;28;20044;-70
2022/04/18 14:13:31;;;;;;;6.87;3.83;;;;;;;20.18;27.53;100184.78;5073358;28;20469;-70
2022/04/18 14:21:26;;;;;;;6.75;4.07;;;;;;;19.87;27.26;100171.63;5073361;28;20090;-70
2022/04/18 14:23:53;;;;;;;6.70;3.90;;;;;;;20.12;26.46;100179.50;5073164;28;20039;-71
2022/04/18 14:26:19;;;;;;;6.78;3.85;;;;;;;19.85;27.07;100169.19;5073326;28;20131;-70
2022/04/18 14:28:45;;;;;;;6.35;3.88;;;;;;;19.60;27.55;100160.47;5055395;28;20115;-70
2022/04/18 14:31:10;;;;;;;8.18;4.25;;;;;;;19.66;28.77;100157.66;5073275;28;20029;-69
2022/04/18 14:33:36;;;;;;;10.57;4.20;;;;;;;19.11;28.02;100155.22;5072946;28;20040;-70
2022/04/18 14:36:03;;;;;;;7.03;4.15;;;;;;;19.39;27.83;100173.47;5073111;28;20028;-72
2022/04/18 14:38:29;;;;;;;6.72;4.10;;;;;;;19.35;27.73;100161.47;5055109;28;20405;-69
2022/04/18 14:40:55;;;;;;;6.82;4.05;;;;;;;19.52;27.69;100157.03;5072956;28;20040;-70
2022/04/18 14:43:21;;;;;;;5.55;3.55;;;;;;;19.02;28.81;100150.38;5072780;28;20071;-69
2022/04/18 14:45:47;;;;;;;5.00;3.55;;;;;;;19.29;28.48;100165.09;5038414;28;20120;-69
2022/04/18 14:48:13;;;;;;;7.97;5.13;;;;;;;19.13;28.23;100158.50;5055122;28;20110;-70
2022/04/18 14:50:39;;;;;;;5.85;3.60;;;;;;;18.91;30.03;100157.41;5072607;28;20381;-70
2022/04/18 14:53:09;;;;;;;6.45;3.50;;;;;;;19.23;28.58;100150.69;5072446;28;20101;-70
2022/04/18 14:55:36;;;;;;;10.32;3.85;;;;;;;19.06;27.98;100152.38;5072685;28;20131;-70
2022/04/18 14:58:03;;;;;;;5.50;3.77;;;;;;;19.19;28.36;100160.28;5072742;28;20412;-70
2022/04/18 15:00:31;;;;;;;6.00;3.40;;;;;;;18.91;29.14;100135.81;5038283;28;20036;-70
2022/04/18 15:02:58;;;;;;;5.13;3.50;;;;;;;18.47;29.36;100139.72;5072454;28;20468;-70
2022/04/18 15:05:24;;;;;;;7.53;4.13;;;;;;;18.70;29.18;100140.66;5071522;28;20119;-70
2022/04/18 15:07:49;;;;;;;5.05;3.30;;;;;;;18.75;28.75;100136.44;5072333;28;20116;-71
2022/04/18 15:10:16;;;;;;;7.53;3.53;;;;;;;18.59;29.02;100133.31;5072358;28;20025;-70
2022/04/18 15:12:43;;;;;;;6.60;3.40;;;;;;;18.84;28.44;100129.66;5071997;28;20025;-70
2022/04/18 15:15:09;;;;;;;7.35;2.90;;;;;;;18.63;28.74;100128.28;5072256;28;20059;-70
2022/04/18 15:17:34;;;;;;;5.95;3.78;;;;;;;18.61;28.69;100125.00;5072367;28;20071;-71
2022/04/18 15:20:00;;;;;;;5.50;3.55;;;;;;;18.64;28.77;100124.53;5072073;28;20056;-70
2022/04/18 15:22:26;;;;;;;4.95;3.08;;;;;;;18.39;29.39;100113.88;5053951;28;20296;-70
2022/04/18 15:24:51;;;;;;;6.07;3.35;;;;;;;18.36;29.12;100112.44;5054426;28;20055;-71
2022/04/18 15:27:17;;;;;;;5.88;3.20;;;;;;;18.37;29.30;100124.06;5054014;28;20043;-70
2022/04/18 15:29:43;;;;;;;6.32;3.30;;;;;;;18.30;30.09;100115.22;5054227;28;20044;-70
2022/04/18 15:32:10;;;;;;;5.68;2.97;;;;;;;18.24;29.12;100121.53;5071682;28;20029;-70
2022/04/18 15:34:37;;;;;;;4.40;3.03;;;;;;;18.36;28.63;100112.44;5071926;28;20131;-71
2022/04/18 15:37:09;;;;;;;4.95;3.25;;;;;;;18.35;29.35;100118.06;5071741;28;20339;-71
2022/04/18 15:39:35;;;;;;;5.03;2.55;;;;;;;18.14;29.64;100112.13;5071845;28;20036;-70
2022/04/18 15:42:01;;;;;;;6.53;3.17;;;;;;;18.37;29.06;100105.19;5071382;28;20025;-70
2022/04/18 15:44:28;;;;;;;5.88;3.60;;;;;;;18.47;29.53;100118.13;5071737;28;20052;-70
2022/04/18 15:46:57;;;;;;;5.18;3.10;;;;;;;18.27;29.59;100113.00;5071512;28;20044;-70
2022/04/18 15:49:24;;;;;;;7.20;3.90;;;;;;;18.21;29.32;100119.31;5071571;28;20035;-70
2022/04/18 15:51:51;;;;;;;5.53;3.20;;;;;;;18.15;29.12;100105.66;5071781;28;20414;-71
2022/04/18 15:54:19;;;;;;;7.18;3.13;;;;;;;18.22;29.09;100113.69;5071689;28;20125;-70
2022/04/18 15:56:44;;;;;;;5.25;3.70;;;;;;;18.18;29.18;100115.16;5053847;28;20413;-71
2022/04/18 15:59:10;;;;;;;7.07;3.70;;;;;;;18.23;29.14;100117.19;5071714;28;20040;-71
2022/04/18 16:01:36;;;;;;;5.05;3.15;;;;;;;18.10;28.89;100113.59;5054143;28;20382;-71
2022/04/18 16:04:02;;;;;;;4.90;3.30;;;;;;;18.08;29.20;100110.31;5072468;28;20039;-71
2022/04/18 16:06:28;;;;;;;5.28;3.10;;;;;;;18.03;29.53;100112.88;5037766;28;20451;-72
2022/04/18 16:08:54;;;;;;;5.25;2.55;;;;;;;17.85;29.54;100113.69;5072287;28;20047;-71
2022/04/18 16:11:20;;;;;;;5.47;3.03;;;;;;;17.87;29.10;100102.69;5037785;28;20032;-74
2022/04/18 16:13:46;;;;;;;5.20;2.92;;;;;;;17.95;29.67;100112.34;5054541;28;20104;-73
2022/04/18 16:16:12;;;;;;;5.75;3.50;;;;;;;17.79;31.17;100111.06;5071540;28;20424;-73
2022/04/18 16:18:37;;;;;;;6.63;3.13;;;;;;;17.90;29.59;100105.75;5053972;28;20113;-69
2022/04/18 16:21:03;;;;;;;4.90;3.13;;;;;;;17.85;29.45;100110.97;5072640;28;20462;-70
2022/04/18 16:23:29;;;;;;;8.88;5.07;;;;;;;17.84;29.42;100098.56;5072574;28;20378;-70
2022/04/18 16:25:55;;;;;;;5.75;2.85;;;;;;;17.91;29.08;100095.78;5072722;28;20040;-70
2022/04/18 16:28:21;;;;;;;6.55;4.03;;;;;;;17.87;29.73;100103.53;5072633;28;20043;-70
2022/04/18 16:33:31;;;;;;;5.63;2.70;;;;;;;17.78;29.66;100095.94;5072427;28;20060;-70